Time;durP1;ratioP1;P1;durP2;ratioP2;P2;SDS_P1;SDS_P2;PMS_P1;PMS_P2;Temp;Humidity;BMP_temperature;BMP_pressure;BME280_temperature;BME280_humidity;BME280_pressure;Samples;Min_cycle;Max_cycle;Signal;HPM_P1;HPM_P2
2023/06/24 00:01:49;;;;;;;;;;;12.10;99.90;;;;;;5114612;28;20263;-84
2023/06/24 00:04:16;;;;;;;;;;;12.20;99.90;;;;;;5098617;28;19912;-84
2023/06/24 00:06:42;;;;;;;;;;;12.20;99.90;;;;;;5098676;28;19912;-84
2023/06/24 00:09:07;;;;;;;;;;;12.20;99.90;;;;;;5117548;28;19934;-84
2023/06/24 00:11:33;;;;;;;;;;;12.20;99.90;;;;;;5099292;28;20379;-84
2023/06/24 00:13:59;;;;;;;;;;;12.20;99.90;;;;;;5115682;28;19918;-84
2023/06/24 00:16:27;;;;;;;;;;;12.20;99.90;;;;;;5149238;27;19962;-84
2023/06/24 00:18:54;;;;;;;;;;;12.20;99.90;;;;;;5115783;28;20014;-84
2023/06/24 00:21:19;;;;;;;;;;;12.20;99.90;;;;;;5114937;28;19907;-84
2023/06/24 00:23:46;;;;;;;;;;;12.20;99.90;;;;;;5098253;28;19912;-83
2023/06/24 00:26:12;;;;;;;;;;;12.10;99.90;;;;;;5115550;28;19990;-84
2023/06/24 00:28:37;;;;;;;;;;;12.00;99.90;;;;;;5115542;28;19946;-83
2023/06/24 00:31:03;;;;;;;;;;;12.00;99.90;;;;;;5115185;28;19919;-83
2023/06/24 00:33:29;;;;;;;;;;;12.00;99.90;;;;;;5149388;27;19903;-83
2023/06/24 00:35:56;;;;;;;;;;;12.00;99.90;;;;;;5114820;28;20425;-84
2023/06/24 00:38:22;;;;;;;;;;;12.10;99.90;;;;;;5094082;28;19908;-84
2023/06/24 00:40:47;;;;;;;;;;;12.10;99.90;;;;;;5097446;28;19918;-84
2023/06/24 00:43:14;;;;;;;;;;;12.10;99.90;;;;;;5115182;28;20382;-84
2023/06/24 00:45:39;;;;;;;;;;;12.00;99.90;;;;;;5097550;28;19953;-84
2023/06/24 00:48:06;;;;;;;;;;;12.00;99.90;;;;;;5115190;28;19956;-84
2023/06/24 00:50:32;;;;;;;;;;;12.00;99.90;;;;;;5098080;28;19907;-84
2023/06/24 00:52:57;;;;;;;;;;;12.00;99.90;;;;;;5097884;28;19907;-84
2023/06/24 00:55:45;;;;;;;;;;;12.00;99.90;;;;;;5115070;28;19916;-84
2023/06/24 00:58:15;;;;;;;;;;;12.00;99.90;;;;;;5097856;28;19915;-84
2023/06/24 01:00:45;;;;;;;;;;;11.90;99.90;;;;;;5096170;28;19907;-84
2023/06/24 01:03:13;;;;;;;;;;;11.90;99.90;;;;;;5149431;27;19915;-84
2023/06/24 01:05:40;;;;;;;;;;;11.80;99.90;;;;;;5097494;28;19946;-84
2023/06/24 01:08:06;;;;;;;;;;;11.70;99.90;;;;;;5097729;28;20007;-84
2023/06/24 01:10:32;;;;;;;;;;;11.70;99.90;;;;;;5097390;28;19947;-84
2023/06/24 01:12:58;;;;;;;;;;;11.70;99.90;;;;;;5114480;28;19919;-84
2023/06/24 01:15:28;;;;;;;;;;;11.70;99.90;;;;;;5149115;27;20539;-84
2023/06/24 01:18:12;;;;;;;;;;;11.70;99.90;;;;;;5114823;28;20007;-84
2023/06/24 01:20:47;;;;;;;;;;;11.60;99.90;;;;;;5104620;28;19907;-83
2023/06/24 01:23:13;;;;;;;;;;;11.70;99.90;;;;;;5118383;27;19914;-82
2023/06/24 01:26:08;;;;;;;;;;;11.70;99.90;;;;;;5097229;28;20282;-83
2023/06/24 01:28:41;;;;;;;;;;;11.70;99.90;;;;;;5082075;28;20414;-84
2023/06/24 01:31:18;;;;;;;;;;;11.60;99.90;;;;;;5148041;27;19941;-84
2023/06/24 01:33:52;;;;;;;;;;;11.60;99.90;;;;;;5097353;28;19911;-83
2023/06/24 01:36:19;;;;;;;;;;;11.60;99.90;;;;;;5126530;27;19907;-83
2023/06/24 01:38:51;;;;;;;;;;;11.60;99.90;;;;;;5114299;28;19922;-83
2023/06/24 01:41:22;;;;;;;;;;;11.60;99.90;;;;;;5096968;28;20469;-84
2023/06/24 01:43:49;;;;;;;;;;;11.60;99.90;;;;;;5147850;27;20317;-84
2023/06/24 01:46:16;;;;;;;;;;;11.50;99.90;;;;;;5097406;28;19958;-84
2023/06/24 01:48:44;;;;;;;;;;;11.50;99.90;;;;;;5096818;28;19916;-84
2023/06/24 01:51:10;;;;;;;;;;;11.50;99.90;;;;;;5097641;28;19911;-84
2023/06/24 01:53:42;;;;;;;;;;;11.50;99.90;;;;;;5147853;27;19912;-84
2023/06/24 01:56:10;;;;;;;;;;;11.50;99.90;;;;;;5096427;28;20362;-84
2023/06/24 01:58:37;;;;;;;;;;;11.40;99.90;;;;;;5096543;28;19988;-84
2023/06/24 02:01:03;;;;;;;;;;;11.40;99.90;;;;;;5096588;28;19908;-84
2023/06/24 02:03:30;;;;;;;;;;;11.30;99.90;;;;;;5109914;28;20655;-83
2023/06/24 02:05:57;;;;;;;;;;;11.30;99.90;;;;;;5113499;28;19908;-84
2023/06/24 02:08:23;;;;;;;;;;;11.30;99.90;;;;;;5113266;28;19933;-84
2023/06/24 02:10:49;;;;;;;;;;;11.20;99.90;;;;;;5148140;27;19908;-84
2023/06/24 02:13:15;;;;;;;;;;;11.20;99.90;;;;;;5096068;28;20661;-84
2023/06/24 02:15:41;;;;;;;;;;;11.20;99.90;;;;;;5095375;28;19912;-84
2023/06/24 02:18:09;;;;;;;;;;;11.30;99.90;;;;;;5112891;28;19911;-83
2023/06/24 02:20:36;;;;;;;;;;;11.20;99.90;;;;;;5147757;27;19911;-83
2023/06/24 02:23:01;;;;;;;;;;;11.20;99.90;;;;;;5095494;28;19972;-83
2023/06/24 02:25:27;;;;;;;;;;;11.20;99.90;;;;;;5095762;28;19908;-83
2023/06/24 02:27:54;;;;;;;;;;;11.20;99.90;;;;;;5095791;28;20121;-83
2023/06/24 02:30:23;;;;;;;;;;;11.20;99.90;;;;;;5095905;28;20255;-83
2023/06/24 02:32:49;;;;;;;;;;;11.20;99.90;;;;;;5096168;28;19915;-84
2023/06/24 02:35:16;;;;;;;;;;;11.10;99.90;;;;;;5096150;28;19955;-84
2023/06/24 02:38:03;;;;;;;;;;;11.10;99.90;;;;;;5096007;28;19933;-83
2023/06/24 02:40:29;;;;;;;;;;;11.10;99.90;;;;;;5112678;28;19908;-84
2023/06/24 02:42:55;;;;;;;;;;;11.00;99.90;;;;;;5095669;28;19912;-84
2023/06/24 02:45:21;;;;;;;;;;;11.00;99.90;;;;;;5095307;28;20002;-83
2023/06/24 02:47:47;;;;;;;;;;;11.00;99.90;;;;;;5095688;28;20044;-84
2023/06/24 02:50:13;;;;;;;;;;;11.00;99.90;;;;;;5095681;28;19912;-84
2023/06/24 02:52:40;;;;;;;;;;;11.00;99.90;;;;;;5146957;27;19984;-84
2023/06/24 02:55:11;;;;;;;;;;;10.90;99.90;;;;;;5095810;28;20363;-84
2023/06/24 02:57:45;;;;;;;;;;;11.00;99.90;;;;;;5112964;28;19943;-84
2023/06/24 03:00:20;;;;;;;;;;;11.00;99.90;;;;;;5112427;28;19908;-83
2023/06/24 03:03:05;;;;;;;;;;;11.00;99.90;;;;;;5113313;28;19914;-84
2023/06/24 03:05:33;;;;;;;;;;;11.00;99.90;;;;;;5095435;28;19908;-84
2023/06/24 03:07:59;;;;;;;;;;;11.10;99.90;;;;;;5147209;27;20675;-84
2023/06/24 03:10:25;;;;;;;;;;;11.10;99.90;;;;;;5146773;27;19911;-84
2023/06/24 03:12:51;;;;;;;;;;;11.10;99.90;;;;;;5112374;28;19907;-83
2023/06/24 03:15:17;;;;;;;;;;;11.10;99.90;;;;;;5095125;28;19968;-84
2023/06/24 03:17:43;;;;;;;;;;;11.00;99.90;;;;;;5112485;28;19911;-84
2023/06/24 03:20:09;;;;;;;;;;;11.00;99.90;;;;;;5093948;28;19911;-82
2023/06/24 03:22:35;;;;;;;;;;;11.00;99.90;;;;;;5109427;28;19908;-82
2023/06/24 03:25:04;;;;;;;;;;;11.00;99.90;;;;;;5095742;28;19912;-82
2023/06/24 03:27:34;;;;;;;;;;;11.00;99.90;;;;;;5111667;28;20293;-82
2023/06/24 03:30:01;;;;;;;;;;;11.10;99.90;;;;;;5146171;27;19911;-82
2023/06/24 03:32:28;;;;;;;;;;;11.10;99.90;;;;;;5145840;27;20406;-81
2023/06/24 03:34:54;;;;;;;;;;;11.10;99.90;;;;;;5145898;27;19912;-81
2023/06/24 03:37:20;;;;;;;;;;;11.10;99.90;;;;;;5149099;27;19908;-82
2023/06/24 03:39:45;;;;;;;;;;;11.10;99.90;;;;;;5116184;28;19937;-81
2023/06/24 03:42:11;;;;;;;;;;;11.20;99.90;;;;;;5098738;28;19912;-82
2023/06/24 03:44:37;;;;;;;;;;;11.20;99.90;;;;;;5098724;28;20354;-82
2023/06/24 03:47:03;;;;;;;;;;;11.30;99.90;;;;;;5115572;28;19918;-82
2023/06/24 03:49:29;;;;;;;;;;;11.30;99.90;;;;;;5098037;28;19975;-82
2023/06/24 03:51:55;;;;;;;;;;;11.30;99.90;;;;;;5149995;27;19930;-82
2023/06/24 03:54:20;;;;;;;;;;;11.40;99.90;;;;;;5149738;27;20379;-82
2023/06/24 03:56:47;;;;;;;;;;;11.40;99.90;;;;;;5098961;28;19911;-82
2023/06/24 03:59:13;;;;;;;;;;;11.50;99.90;;;;;;5115688;28;19919;-82
2023/06/24 04:01:39;;;;;;;;;;;11.50;99.90;;;;;;5098364;28;19911;-82
2023/06/24 04:04:04;;;;;;;;;;;11.60;99.90;;;;;;5149561;27;19918;-82
2023/06/24 04:06:30;;;;;;;;;;;11.70;99.90;;;;;;5115410;28;19942;-82
2023/06/24 04:08:56;;;;;;;;;;;11.80;99.90;;;;;;5098586;28;19908;-82
2023/06/24 04:11:22;;;;;;;;;;;11.90;99.90;;;;;;5149435;27;19907;-82
2023/06/24 04:13:48;;;;;;;;;;;12.00;99.90;;;;;;5098025;28;20044;-82
2023/06/24 04:16:14;;;;;;;;;;;12.10;99.90;;;;;;5098138;28;19915;-82
2023/06/24 04:18:40;;;;;;;;;;;12.20;99.90;;;;;;5097917;28;19915;-82
2023/06/24 04:21:08;;;;;;;;;;;12.30;99.90;;;;;;5114632;28;20275;-82
2023/06/24 04:23:34;;;;;;;;;;;12.40;99.90;;;;;;5131859;27;19914;-82
2023/06/24 04:26:00;;;;;;;;;;;12.50;99.90;;;;;;5148804;27;20006;-82
2023/06/24 04:28:25;;;;;;;;;;;12.60;99.90;;;;;;5097907;28;19907;-82
2023/06/24 04:30:51;;;;;;;;;;;12.70;99.90;;;;;;5097690;28;19908;-81
2023/06/24 04:33:17;;;;;;;;;;;12.80;99.90;;;;;;5149078;27;19911;-82
2023/06/24 04:35:44;;;;;;;;;;;12.90;99.90;;;;;;5114146;28;20468;-82
2023/06/24 04:38:10;;;;;;;;;;;13.00;99.90;;;;;;5114571;28;19908;-82
2023/06/24 04:40:35;;;;;;;;;;;13.10;99.90;;;;;;5114543;28;19919;-82
2023/06/24 04:43:01;;;;;;;;;;;13.20;99.90;;;;;;5097619;28;19926;-82
2023/06/24 04:45:27;;;;;;;;;;;13.30;99.90;;;;;;5097606;28;20362;-82
2023/06/24 04:47:52;;;;;;;;;;;13.40;99.90;;;;;;5115736;28;19957;-82
2023/06/24 04:50:18;;;;;;;;;;;13.50;99.90;;;;;;5114375;28;19907;-82
2023/06/24 04:52:44;;;;;;;;;;;13.60;99.90;;;;;;5114540;28;19982;-82
2023/06/24 04:55:10;;;;;;;;;;;13.70;99.90;;;;;;5097540;28;20524;-82
2023/06/24 04:57:35;;;;;;;;;;;13.80;99.90;;;;;;5114673;28;19908;-82
2023/06/24 05:00:01;;;;;;;;;;;14.00;99.90;;;;;;5114282;28;19908;-82
2023/06/24 05:02:27;;;;;;;;;;;14.00;99.90;;;;;;5097141;28;20312;-82
2023/06/24 05:04:53;;;;;;;;;;;14.20;99.90;;;;;;5095172;28;20633;-81
2023/06/24 05:07:19;;;;;;;;;;;14.30;99.90;;;;;;5097445;28;20003;-81
2023/06/24 05:09:48;;;;;;;;;;;14.50;99.90;;;;;;5114646;28;19959;-81
2023/06/24 05:12:13;;;;;;;;;;;14.70;99.90;;;;;;5096724;28;19915;-81
2023/06/24 05:14:39;;;;;;;;;;;14.80;99.90;;;;;;5114941;28;20378;-81
2023/06/24 05:17:05;;;;;;;;;;;15.00;99.90;;;;;;5097328;28;19912;-81
2023/06/24 05:19:30;;;;;;;;;;;15.10;99.90;;;;;;5097040;28;19938;-81
2023/06/24 05:21:56;;;;;;;;;;;15.30;99.90;;;;;;5097430;28;19995;-81
2023/06/24 05:24:21;;;;;;;;;;;15.40;99.90;;;;;;5114362;28;19908;-81
2023/06/24 05:26:48;;;;;;;;;;;15.60;99.90;;;;;;5096519;28;19911;-81
2023/06/24 05:29:14;;;;;;;;;;;15.70;99.90;;;;;;5113395;28;19961;-81
2023/06/24 05:31:40;;;;;;;;;;;15.80;99.90;;;;;;5096378;28;19904;-80
2023/06/24 05:34:06;;;;;;;;;;;15.90;99.90;;;;;;5113880;28;19911;-81
2023/06/24 05:36:31;;;;;;;;;;;15.90;99.90;;;;;;5114732;28;19969;-81
2023/06/24 05:38:57;;;;;;;;;;;16.00;99.90;;;;;;5113434;28;20370;-81
2023/06/24 05:41:22;;;;;;;;;;;16.20;99.90;;;;;;5095901;28;19937;-80
2023/06/24 05:43:48;;;;;;;;;;;16.30;99.90;;;;;;5113078;28;19914;-83
2023/06/24 05:46:13;;;;;;;;;;;16.40;99.90;;;;;;5113709;28;20053;-82
2023/06/24 05:48:39;;;;;;;;;;;16.60;99.90;;;;;;5147283;27;19934;-82
2023/06/24 05:51:05;;;;;;;;;;;16.70;99.90;;;;;;5096054;28;19919;-82
2023/06/24 05:53:30;;;;;;;;;;;16.80;99.90;;;;;;5096082;28;19907;-82
2023/06/24 05:55:56;;;;;;;;;;;16.90;99.90;;;;;;5147531;27;20761;-82
2023/06/24 05:58:21;;;;;;;;;;;16.90;99.90;;;;;;5095613;28;19914;-83
2023/06/24 06:00:48;;;;;;;;;;;17.00;99.90;;;;;;5147393;27;19915;-82
2023/06/24 06:03:14;;;;;;;;;;;17.10;99.90;;;;;;5112973;28;19915;-82
2023/06/24 06:05:40;;;;;;;;;;;17.20;99.90;;;;;;5112688;28;19911;-83
2023/06/24 06:08:05;;;;;;;;;;;17.30;99.90;;;;;;5112906;28;19949;-82
2023/06/24 06:10:31;;;;;;;;;;;17.40;99.90;;;;;;5095678;28;19908;-83
2023/06/24 06:12:57;;;;;;;;;;;17.50;99.90;;;;;;5095919;28;20006;-82
2023/06/24 06:15:22;;;;;;;;;;;17.60;99.90;;;;;;5096250;28;19920;-82
2023/06/24 06:17:51;;;;;;;;;;;17.70;99.90;;;;;;5080570;28;19916;-82
2023/06/24 06:20:17;;;;;;;;;;;17.80;99.90;;;;;;5104246;28;20355;-82
2023/06/24 06:22:42;;;;;;;;;;;17.80;99.90;;;;;;5094349;28;19914;-82
2023/06/24 06:25:08;;;;;;;;;;;17.90;99.90;;;;;;5135754;27;20522;-82
2023/06/24 06:27:34;;;;;;;;;;;18.00;99.90;;;;;;5113267;27;20006;-81
2023/06/24 06:30:00;;;;;;;;;;;18.00;99.90;;;;;;5114466;27;19907;-82
2023/06/24 06:32:26;;;;;;;;;;;18.10;99.90;;;;;;5130754;27;19911;-82
2023/06/24 06:34:51;;;;;;;;;;;18.20;99.90;;;;;;5115225;27;19915;-82
2023/06/24 06:37:17;;;;;;;;;;;18.30;99.90;;;;;;5108984;27;19911;-82
2023/06/24 06:39:43;;;;;;;;;;;18.30;99.90;;;;;;5107572;27;19911;-82
2023/06/24 06:42:08;;;;;;;;;;;18.40;99.90;;;;;;5109780;27;19911;-82
2023/06/24 06:44:34;;;;;;;;;;;18.40;99.90;;;;;;5097278;27;19912;-82
2023/06/24 06:47:00;;;;;;;;;;;18.50;99.90;;;;;;5106298;28;20440;-82
2023/06/24 06:49:25;;;;;;;;;;;18.50;99.90;;;;;;5110649;27;19939;-82
2023/06/24 06:51:55;;;;;;;;;;;18.50;99.90;;;;;;5133844;27;19946;-83
2023/06/24 06:54:20;;;;;;;;;;;18.50;99.90;;;;;;5090767;27;19923;-83
2023/06/24 06:56:46;;;;;;;;;;;18.50;99.90;;;;;;5090876;27;19914;-83
2023/06/24 06:59:12;;;;;;;;;;;18.50;99.90;;;;;;5108906;27;19914;-83
2023/06/24 07:01:37;;;;;;;;;;;18.60;99.90;;;;;;5096602;27;19907;-82
2023/06/24 07:04:03;;;;;;;;;;;18.70;99.90;;;;;;5094001;27;20022;-82
2023/06/24 07:06:29;;;;;;;;;;;18.80;99.90;;;;;;5106436;27;19907;-83
2023/06/24 07:08:54;;;;;;;;;;;18.90;99.90;;;;;;5114224;27;19914;-83
2023/06/24 07:11:20;;;;;;;;;;;19.50;99.90;;;;;;5106034;28;20332;-83
2023/06/24 07:13:46;;;;;;;;;;;20.70;99.90;;;;;;5093801;28;19986;-83
2023/06/24 07:16:11;;;;;;;;;;;22.30;99.90;;;;;;5122233;28;19965;-84
2023/06/24 07:18:37;;;;;;;;;;;24.10;99.90;;;;;;5112758;28;19941;-83
2023/06/24 07:21:03;;;;;;;;;;;25.50;99.90;;;;;;5113795;28;19909;-83
2023/06/24 07:23:29;;;;;;;;;;;26.40;99.90;;;;;;5110705;28;19925;-83
2023/06/24 07:25:54;;;;;;;;;;;26.80;99.90;;;;;;5107630;28;19904;-81
2023/06/24 07:28:20;;;;;;;;;;;27.30;98.00;;;;;;5094908;28;19915;-82
2023/06/24 07:30:46;;;;;;;;;;;27.80;96.20;;;;;;5095921;28;19951;-82
2023/06/24 07:33:11;;;;;;;;;;;28.50;94.80;;;;;;5108666;28;20296;-81
2023/06/24 07:35:37;;;;;;;;;;;29.00;92.90;;;;;;5119631;28;19914;-82
2023/06/24 07:38:03;;;;;;;;;;;29.60;91.20;;;;;;5096597;28;20496;-82
2023/06/24 07:40:29;;;;;;;;;;;29.80;88.60;;;;;;5096640;28;19911;-82
2023/06/24 07:42:54;;;;;;;;;;;29.60;88.60;;;;;;5109919;28;20375;-82
2023/06/24 07:45:20;;;;;;;;;;;29.00;88.80;;;;;;5095174;27;19919;-81
2023/06/24 07:47:46;;;;;;;;;;;27.10;90.40;;;;;;5107140;27;19960;-81
2023/06/24 07:50:11;;;;;;;;;;;25.20;92.60;;;;;;5099342;28;20350;-82
2023/06/24 07:52:37;;;;;;;;;;;23.50;95.40;;;;;;5095074;28;19911;-82
2023/06/24 07:55:03;;;;;;;;;;;22.40;97.90;;;;;;5110873;28;19959;-82
2023/06/24 07:57:29;;;;;;;;;;;22.00;99.60;;;;;;5106111;28;20452;-82
2023/06/24 07:59:55;;;;;;;;;;;21.90;99.90;;;;;;5094504;28;19969;-82
2023/06/24 08:02:21;;;;;;;;;;;22.50;99.90;;;;;;5096079;28;20354;-81
2023/06/24 08:04:46;;;;;;;;;;;24.20;98.80;;;;;;5095887;28;20029;-81
2023/06/24 08:07:12;;;;;;;;;;;26.30;96.80;;;;;;5113272;28;20011;-82
2023/06/24 08:09:38;;;;;;;;;;;28.00;93.40;;;;;;5118196;27;20014;-82
2023/06/24 08:12:04;;;;;;;;;;;29.20;90.70;;;;;;5092505;28;19915;-83
2023/06/24 08:14:30;;;;;;;;;;;30.10;87.90;;;;;;5094556;28;20359;-82
2023/06/24 08:16:56;;;;;;;;;;;30.60;84.10;;;;;;5094475;28;19911;-81
2023/06/24 08:19:21;;;;;;;;;;;30.90;81.20;;;;;;5107904;28;19975;-82
2023/06/24 08:21:47;;;;;;;;;;;30.70;77.40;;;;;;5087030;27;19915;-82
2023/06/24 08:24:13;;;;;;;;;;;30.90;77.80;;;;;;5097615;28;19914;-82
2023/06/24 08:26:38;;;;;;;;;;;31.30;73.80;;;;;;5102740;27;19915;-82
2023/06/24 08:29:04;;;;;;;;;;;31.40;72.20;;;;;;5101120;27;20366;-82
2023/06/24 08:31:30;;;;;;;;;;;31.00;73.20;;;;;;5136152;27;19914;-82
2023/06/24 08:33:58;;;;;;;;;;;30.40;73.00;;;;;;5101250;27;20357;-81
2023/06/24 08:36:27;;;;;;;;;;;30.40;73.80;;;;;;5100848;27;19911;-82
2023/06/24 08:38:53;;;;;;;;;;;31.10;72.30;;;;;;5100864;27;20328;-82
2023/06/24 08:41:18;;;;;;;;;;;31.30;72.00;;;;;;5100656;27;19908;-83
2023/06/24 08:43:44;;;;;;;;;;;31.70;71.70;;;;;;5101048;27;20354;-83
2023/06/24 08:46:10;;;;;;;;;;;30.90;73.10;;;;;;5117671;27;19915;-83
2023/06/24 08:48:39;;;;;;;;;;;31.10;71.80;;;;;;5118050;27;19907;-82
2023/06/24 08:51:08;;;;;;;;;;;31.60;70.60;;;;;;5117152;27;19907;-83
2023/06/24 08:53:34;;;;;;;;;;;32.00;68.90;;;;;;5116078;27;19954;-83
2023/06/24 08:55:59;;;;;;;;;;;32.00;68.90;;;;;;5096725;27;22407;-82
2023/06/24 08:58:25;;;;;;;;;;;31.80;69.50;;;;;;5117983;27;19907;-82
2023/06/24 09:00:51;;;;;;;;;;;31.70;68.80;;;;;;5100322;27;19911;-83
2023/06/24 09:03:17;;;;;;;;;;;31.70;69.10;;;;;;5117952;27;20358;-82
2023/06/24 09:05:44;;;;;;;;;;;32.00;67.80;;;;;;5098215;27;21583;-82
2023/06/24 09:08:09;;;;;;;;;;;31.90;67.50;;;;;;5092991;28;19914;-82
2023/06/24 09:10:36;;;;;;;;;;;32.00;68.80;;;;;;5153171;27;20515;-83
2023/06/24 09:13:02;;;;;;;;;;;32.00;67.40;;;;;;5129251;27;19915;-82
2023/06/24 09:15:31;;;;;;;;;;;32.10;67.90;;;;;;5122947;27;19950;-82
2023/06/24 09:17:57;;;;;;;;;;;31.80;67.80;;;;;;5105567;27;19911;-82
2023/06/24 09:20:23;;;;;;;;;;;31.90;66.30;;;;;;5095973;28;20420;-82
2023/06/24 09:22:49;;;;;;;;;;;32.10;66.20;;;;;;5105031;27;20342;-82
2023/06/24 09:25:18;;;;;;;;;;;30.70;67.30;;;;;;5115510;27;20603;-82
2023/06/24 09:27:52;;;;;;;;;;;28.90;70.50;;;;;;5103829;27;20904;-82
2023/06/24 09:30:23;;;;;;;;;;;27.20;74.60;;;;;;5138965;27;20334;-82
2023/06/24 09:32:49;;;;;;;;;;;27.00;74.80;;;;;;5107697;27;19911;-81
2023/06/24 09:35:19;;;;;;;;;;;28.20;74.00;;;;;;5105288;27;20380;-82
2023/06/24 09:37:55;;;;;;;;;;;28.50;73.10;;;;;;5113049;27;19916;-82
2023/06/24 09:40:22;;;;;;;;;;;28.30;74.00;;;;;;5124407;27;19945;-82
2023/06/24 09:42:48;;;;;;;;;;;27.60;77.10;;;;;;5092877;27;19920;-82
2023/06/24 09:45:14;;;;;;;;;;;26.80;77.30;;;;;;5124330;27;20386;-81
2023/06/24 09:47:39;;;;;;;;;;;26.40;78.70;;;;;;5092653;27;19915;-82
2023/06/24 09:50:05;;;;;;;;;;;26.10;80.80;;;;;;5116247;27;19907;-83
2023/06/24 09:52:41;;;;;;;;;;;26.00;81.50;;;;;;5110471;27;19961;-82
2023/06/24 09:55:07;;;;;;;;;;;25.80;80.60;;;;;;5101870;27;19914;-82
2023/06/24 09:57:35;;;;;;;;;;;26.50;79.40;;;;;;5108824;27;20362;-83
2023/06/24 10:00:01;;;;;;;;;;;27.00;79.00;;;;;;5100671;27;19934;-82
2023/06/24 10:02:28;;;;;;;;;;;26.40;78.20;;;;;;5106048;27;19912;-82
2023/06/24 10:04:54;;;;;;;;;;;25.80;81.70;;;;;;5095042;27;20319;-82
2023/06/24 10:07:19;;;;;;;;;;;25.20;81.30;;;;;;5139363;27;19956;-82
2023/06/24 10:09:45;;;;;;;;;;;25.00;82.60;;;;;;5120597;27;20642;-81
2023/06/24 10:12:11;;;;;;;;;;;24.90;82.10;;;;;;5137139;27;20350;-81
2023/06/24 10:14:36;;;;;;;;;;;25.00;87.10;;;;;;5118812;27;19922;-81
2023/06/24 10:17:03;;;;;;;;;;;25.70;83.30;;;;;;5098649;27;20270;-82
2023/06/24 10:19:29;;;;;;;;;;;27.20;79.70;;;;;;5099274;27;19911;-82
2023/06/24 10:21:57;;;;;;;;;;;27.70;77.60;;;;;;5116315;27;19914;-83
2023/06/24 10:24:29;;;;;;;;;;;28.40;79.20;;;;;;5115690;27;19911;-82
2023/06/24 10:26:55;;;;;;;;;;;28.80;75.00;;;;;;5116259;27;20372;-82
2023/06/24 10:29:41;;;;;;;;;;;28.80;75.70;;;;;;5116090;27;19903;-82
2023/06/24 10:32:07;;;;;;;;;;;29.50;74.50;;;;;;5109284;27;19908;-82
2023/06/24 10:34:34;;;;;;;;;;;29.50;72.00;;;;;;5134390;27;20354;-82
2023/06/24 10:37:01;;;;;;;;;;;29.70;72.00;;;;;;5099170;27;19911;-82
2023/06/24 10:39:38;;;;;;;;;;;30.20;72.60;;;;;;5116425;27;19907;-82
2023/06/24 10:42:18;;;;;;;;;;;30.60;72.00;;;;;;5133432;27;19907;-83
2023/06/24 10:44:48;;;;;;;;;;;30.70;70.90;;;;;;5115494;27;19919;-83
2023/06/24 10:47:13;;;;;;;;;;;30.30;70.20;;;;;;5098939;27;19904;-83
2023/06/24 10:49:39;;;;;;;;;;;30.60;73.00;;;;;;5116415;27;19907;-83
2023/06/24 10:52:13;;;;;;;;;;;30.10;71.70;;;;;;5099002;27;19914;-83
2023/06/24 10:54:40;;;;;;;;;;;29.90;71.20;;;;;;5115949;27;19907;-83
2023/06/24 10:57:36;;;;;;;;;;;30.20;71.10;;;;;;5099289;27;19903;-84
2023/06/24 11:00:03;;;;;;;;;;;29.70;71.00;;;;;;5133031;27;19907;-83
2023/06/24 11:02:29;;;;;;;;;;;28.90;73.30;;;;;;5098562;27;20115;-81
2023/06/24 11:04:56;;;;;;;;;;;28.20;73.50;;;;;;5115625;27;20001;-82
2023/06/24 11:07:23;;;;;;;;;;;28.10;74.90;;;;;;5099237;27;19908;-82
2023/06/24 11:09:53;;;;;;;;;;;28.60;73.40;;;;;;5115411;27;19911;-82
2023/06/24 11:12:19;;;;;;;;;;;28.60;73.90;;;;;;5115565;28;19907;-82
2023/06/24 11:14:45;;;;;;;;;;;29.10;72.50;;;;;;5095236;27;19921;-82
2023/06/24 11:17:12;;;;;;;;;;;29.50;72.40;;;;;;5091398;28;19929;-83
2023/06/24 11:19:39;;;;;;;;;;;29.60;71.50;;;;;;5109369;28;20270;-84
2023/06/24 11:22:06;;;;;;;;;;;30.20;69.60;;;;;;5110630;27;19914;-83
2023/06/24 11:24:32;;;;;;;;;;;30.30;69.50;;;;;;5110175;27;20002;-83
2023/06/24 11:26:57;;;;;;;;;;;30.10;68.20;;;;;;5097772;28;19934;-83
2023/06/24 11:29:23;;;;;;;;;;;29.40;68.20;;;;;;5109298;28;19919;-83
2023/06/24 11:31:50;;;;;;;;;;;29.30;68.40;;;;;;5098839;28;19903;-84
2023/06/24 11:34:15;;;;;;;;;;;30.10;69.70;;;;;;5125345;28;20498;-84
2023/06/24 11:36:41;;;;;;;;;;;30.90;68.30;;;;;;5097412;28;20647;-84
2023/06/24 11:39:07;;;;;;;;;;;31.00;66.60;;;;;;5098167;28;19914;-85
2023/06/24 11:41:33;;;;;;;;;;;30.80;66.00;;;;;;5106402;28;19908;-83
2023/06/24 11:43:59;;;;;;;;;;;29.60;67.70;;;;;;5094564;28;19904;-84
2023/06/24 11:46:25;;;;;;;;;;;29.20;68.10;;;;;;5104848;28;19915;-84
2023/06/24 11:48:51;;;;;;;;;;;28.80;70.70;;;;;;5117711;27;20628;-83
2023/06/24 11:51:16;;;;;;;;;;;29.10;69.20;;;;;;5104106;28;19943;-84
2023/06/24 11:53:48;;;;;;;;;;;29.50;68.10;;;;;;5119792;28;19908;-84
2023/06/24 11:56:14;;;;;;;;;;;30.10;67.00;;;;;;5107812;28;19975;-84
2023/06/24 11:58:39;;;;;;;;;;;30.70;66.30;;;;;;5104939;27;19904;-84
2023/06/24 12:01:08;;;;;;;;;;;30.70;67.70;;;;;;5097567;28;19915;-83
2023/06/24 12:03:34;;;;;;;;;;;30.70;67.60;;;;;;5108777;27;19934;-84
2023/06/24 12:06:00;;;;;;;;;;;31.20;65.00;;;;;;5099449;27;19919;-84
2023/06/24 12:08:26;;;;;;;;;;;31.50;62.90;;;;;;5100293;27;19914;-84
2023/06/24 12:10:52;;;;;;;;;;;31.80;63.60;;;;;;5146360;27;19908;-84
2023/06/24 12:13:17;;;;;;;;;;;32.00;62.70;;;;;;5099683;27;19955;-84
2023/06/24 12:15:43;;;;;;;;;;;32.10;60.90;;;;;;5117796;27;19911;-84
2023/06/24 12:18:09;;;;;;;;;;;31.60;59.30;;;;;;5101132;27;19911;-84
2023/06/24 12:20:36;;;;;;;;;;;31.60;62.30;;;;;;5092138;28;19903;-84
2023/06/24 12:23:03;;;;;;;;;;;32.10;64.10;;;;;;5111550;27;20401;-84
2023/06/24 12:25:29;;;;;;;;;;;32.50;60.90;;;;;;5101716;28;20325;-84
2023/06/24 12:28:03;;;;;;;;;;;32.90;61.90;;;;;;5131719;27;19915;-83
2023/06/24 12:30:29;;;;;;;;;;;32.40;59.80;;;;;;5091804;28;19915;-84
2023/06/24 12:32:55;;;;;;;;;;;31.40;60.80;;;;;;5112208;27;20010;-84
2023/06/24 12:35:21;;;;;;;;;;;30.80;62.10;;;;;;5097406;28;19907;-84
2023/06/24 12:37:48;;;;;;;;;;;30.00;63.10;;;;;;5118005;27;19950;-84
2023/06/24 12:40:14;;;;;;;;;;;29.20;63.60;;;;;;5110839;27;19919;-84
2023/06/24 12:42:39;;;;;;;;;;;28.80;64.90;;;;;;5091044;27;20317;-84
2023/06/24 12:45:05;;;;;;;;;;;29.60;64.10;;;;;;5098625;27;20344;-85
2023/06/24 12:47:31;;;;;;;;;;;30.40;63.10;;;;;;5106210;28;19911;-84
2023/06/24 12:49:56;;;;;;;;;;;31.70;64.20;;;;;;5149083;27;20373;-83
2023/06/24 12:52:22;;;;;;;;;;;32.70;59.30;;;;;;5140678;27;19955;-82
2023/06/24 12:54:48;;;;;;;;;;;33.30;57.60;;;;;;5110285;27;19907;-82
2023/06/24 12:57:14;;;;;;;;;;;33.50;58.10;;;;;;5104900;27;20359;-82
2023/06/24 12:59:40;;;;;;;;;;;33.70;56.40;;;;;;5092230;27;19908;-82
2023/06/24 13:02:06;;;;;;;;;;;34.20;57.20;;;;;;5128100;27;19911;-83
2023/06/24 13:04:31;;;;;;;;;;;34.20;56.40;;;;;;5082380;28;19912;-85
2023/06/24 13:06:57;;;;;;;4.32;3.70;;;34.50;57.30;;;;;;5108987;27;19923;-84
2023/06/24 13:09:23;;;;;;;;;;;34.80;55.50;;;;;;5095612;28;20067;-85
2023/06/24 13:11:49;;;;;;;;;;;35.00;55.50;;;;;;5114468;27;19950;-82
2023/06/24 13:14:18;;;;;;;;;;;34.40;56.40;;;;;;5108356;27;19916;-82
2023/06/24 13:16:43;;;;;;;;;;;33.40;56.50;;;;;;5095166;27;20017;-84
2023/06/24 13:19:09;;;;;;;;;;;32.80;57.00;;;;;;5109477;27;19969;-82
2023/06/24 13:21:35;;;;;;;;;;;32.70;55.50;;;;;;5101682;28;19914;-82
2023/06/24 13:24:00;;;;;;;;;;;32.30;57.30;;;;;;5109363;27;20319;-82
2023/06/24 13:26:26;;;;;;;;;;;31.50;57.30;;;;;;5097571;27;19915;-82
2023/06/24 13:28:52;;;;;;;;;;;31.80;57.90;;;;;;5085284;27;19931;-82
2023/06/24 13:31:18;;;;;;;;;;;32.00;56.90;;;;;;5100100;27;19943;-81
2023/06/24 13:33:43;;;;;;;;;;;31.10;57.80;;;;;;5096621;27;19911;-82
2023/06/24 13:36:12;;;;;;;;;;;30.60;59.10;;;;;;5136731;27;20004;-82
2023/06/24 13:38:38;;;;;;;;;;;30.90;57.90;;;;;;5087715;28;20415;-82
2023/06/24 13:41:03;;;;;;;;;;;32.20;57.50;;;;;;5130003;27;19911;-83
2023/06/24 13:43:29;;;;;;;;;;;33.50;56.60;;;;;;5090121;28;20002;-83
2023/06/24 13:45:54;;;;;;;;;;;34.00;55.30;;;;;;5113634;27;19915;-82
2023/06/24 13:48:20;;;;;;;;;;;33.90;55.00;;;;;;5125044;27;20314;-83
2023/06/24 13:50:46;;;;;;;;;;;34.20;55.70;;;;;;5094769;27;19913;-84
2023/06/24 13:53:15;;;;;;;;;;;34.00;54.70;;;;;;5106516;27;19939;-84
2023/06/24 13:55:41;;;;;;;3.95;3.38;;;32.90;55.60;;;;;;5096001;27;19911;-83
2023/06/24 13:58:07;;;;;;;3.50;3.20;;;31.60;57.20;;;;;;5098738;27;20431;-83
2023/06/24 14:00:57;;;;;;;;;;;30.60;58.10;;;;;;5113675;27;20493;-84
2023/06/24 14:03:23;;;;;;;;;;;30.00;58.90;;;;;;5142506;27;19907;-83
2023/06/24 14:05:48;;;;;;;;;;;29.00;59.50;;;;;;5111896;27;19926;-82
2023/06/24 14:08:14;;;;;;;;;;;28.70;62.50;;;;;;5102525;27;19937;-83
2023/06/24 14:10:40;;;;;;;;;;;28.70;60.00;;;;;;5124137;27;20005;-83
2023/06/24 14:13:11;;;;;;;;;;;29.60;58.90;;;;;;5094053;27;19907;-83
2023/06/24 14:15:37;;;;;;;;;;;31.00;58.50;;;;;;5116206;27;19950;-84